Ilgaz — TCHQ — position and weather

sailwx.info

Track history (hours):
 
Tides and Currents Weather Stations Pressure Air Temp Water Temp Dewpoint Dewpoint Depression Visibility Wind Speed Wind Dir Waves Ship Positions

Ilgaz

Last reported at 2014-Dec-09 01:30 UTC. Time now 2014-Dec-20 02:17 UTC.
Position N 37°22' E 026°49'.
Warning: this ship's position is 11 days out of date.

Length 124 m; draft 8.5 m.

Type: Cargo ship. MMSI: 271000215.

Date/timePositionNaut miles runAvg speedWind from/ knotsBaromVisibWave heightAir tempDewpointWater temp
2014-Dec-09 01:30N 37°22' E 026°49'21 6.8
2014-Dec-08 22:22N 37°39' E 026°34'9 7.0
2014-Dec-08 21:04N 37°47' E 026°29'187 7.5
2014-Dec-07 20:19N 40°40' E 024°58'6 8.2
2014-Dec-07 19:33N 40°45' E 024°53'9 8.7
2014-Dec-07 18:33N 40°48' E 024°42'9 8.6
2014-Dec-07 17:33N 40°53' E 024°33'5 5.0
2014-Dec-07 16:33N 40°57' E 024°29'0 0.0
2014-Dec-07 15:33N 40°57' E 024°29'0 0.0
2014-Dec-07 14:33N 40°57' E 024°29'0 0.0
2014-Dec-07 13:33N 40°57' E 024°29'0 0.0
2014-Dec-07 12:33N 40°57' E 024°29'0 0.0
2014-Dec-07 11:33N 40°57' E 024°29'0 0.0
2014-Dec-07 10:33N 40°57' E 024°29'0 0.0
2014-Dec-07 09:33N 40°57' E 024°29'0 0.0
2014-Dec-07 08:33N 40°57' E 024°29'0 0.0
2014-Dec-07 07:33N 40°57' E 024°29'0 0.0
2014-Dec-07 06:33N 40°57' E 024°29'0 0.0
2014-Dec-07 05:33N 40°57' E 024°29'0 0.0
2014-Dec-07 02:33N 40°57' E 024°29'0 0.0
2014-Dec-07 01:33N 40°57' E 024°29'0 0.0
2014-Dec-07 00:33N 40°57' E 024°29'0 0.0
2014-Dec-06 23:27N 40°57' E 024°29'0 0.0
2014-Dec-06 22:33N 40°57' E 024°29'0 0.0
2014-Dec-06 21:33N 40°57' E 024°29'0 0.0
2014-Dec-06 20:33N 40°57' E 024°29'0 0.0
2014-Dec-06 19:33N 40°57' E 024°29'0 0.0
2014-Dec-06 18:33N 40°57' E 024°29'0 0.0
2014-Dec-06 17:33N 40°57' E 024°29'0 0.0
2014-Dec-06 16:33N 40°57' E 024°29'0 0.0
2014-Dec-06 15:33N 40°57' E 024°29'0 0.0
2014-Dec-06 14:33N 40°57' E 024°29'0 0.0
2014-Dec-06 13:09N 40°57' E 024°29'0 0.0
2014-Dec-06 12:27N 40°57' E 024°29'0 0.0
2014-Dec-06 11:21N 40°57' E 024°29'0 0.0
2014-Dec-06 10:27N 40°57' E 024°29'0 0.0
2014-Dec-06 08:33N 40°57' E 024°29'0 0.0
2014-Dec-06 07:33N 40°57' E 024°29'0 0.0
2014-Dec-06 06:33N 40°57' E 024°29'0 0.0
2014-Dec-06 05:27N 40°57' E 024°29'0 0.0
2014-Dec-06 04:33N 40°57' E 024°29'0 0.0
2014-Dec-06 03:33N 40°57' E 024°29'0 0.0
2014-Dec-06 02:27N 40°57' E 024°29'0 0.0
2014-Dec-06 01:33N 40°57' E 024°29'0 0.0
2014-Dec-06 00:33N 40°57' E 024°29'0 0.0
2014-Dec-05 23:33N 40°57' E 024°29'0 0.0
2014-Dec-05 22:33N 40°57' E 024°29'0 0.0
2014-Dec-05 21:27N 40°57' E 024°29'0 0.0
2014-Dec-05 20:33N 40°57' E 024°29'0 0.0
2014-Dec-05 19:33N 40°57' E 024°29'0 0.0
2014-Dec-05 18:33N 40°57' E 024°29'0 0.0
2014-Dec-05 17:33N 40°57' E 024°29'0 0.0
2014-Dec-05 16:33N 40°57' E 024°29'0 0.0
2014-Dec-05 15:33N 40°57' E 024°29'0 0.0
2014-Dec-05 14:33N 40°57' E 024°29'0 0.0
2014-Dec-05 13:33N 40°57' E 024°29'0 0.0
2014-Dec-05 12:33N 40°57' E 024°29'0 0.0
2014-Dec-05 11:27N 40°57' E 024°29'0 0.0
2014-Dec-05 10:33N 40°57' E 024°29'0 0.0
2014-Dec-05 09:33N 40°57' E 024°29'0 0.0
2014-Dec-05 08:18N 40°57' E 024°29'0 0.0
2014-Dec-05 07:27N 40°57' E 024°29'0 0.0
2014-Dec-05 06:33N 40°57' E 024°29'0 0.0
2014-Dec-05 05:33N 40°57' E 024°29'0 0.0
2014-Dec-05 04:33N 40°57' E 024°29'0 0.0
2014-Dec-05 03:33N 40°57' E 024°29'0 0.0
2014-Dec-05 02:33N 40°57' E 024°29'0 0.0
2014-Dec-05 01:33N 40°57' E 024°29'0 0.0
2014-Dec-05 00:33N 40°57' E 024°29'0 0.0
2014-Dec-04 23:30N 40°57' E 024°29'0 0.0
2014-Dec-04 22:33N 40°57' E 024°29'0 0.0
2014-Dec-04 21:33N 40°57' E 024°29'0 0.0
2014-Dec-04 20:30N 40°57' E 024°29'0 0.0
2014-Dec-04 19:33N 40°57' E 024°29'0 0.0
2014-Dec-04 18:33N 40°57' E 024°29'0 0.0
2014-Dec-04 17:33N 40°57' E 024°29'0 0.0
2014-Dec-04 16:33N 40°57' E 024°29'0 0.0
2014-Dec-04 15:33N 40°57' E 024°29'0 0.0
2014-Dec-04 14:33N 40°57' E 024°29'0 0.0
2014-Dec-04 13:28N 40°57' E 024°29'7 7.1
2014-Dec-04 12:34N 40°52' E 024°34'1110.6
2014-Dec-04 11:34N 40°47' E 024°47'10 9.9
2014-Dec-04 10:33N 40°40' E 024°56'10 9.5
2014-Dec-04 09:33N 40°33' E 025°05'1110.3
2014-Dec-04 08:30N 40°25' E 025°14'1110.4
2014-Dec-04 07:28N 40°17' E 025°23'910.4
2014-Dec-04 06:34N 40°09' E 025°31'1410.0
2014-Dec-04 05:07N 39°56' E 025°40'710.1
2014-Dec-04 04:25N 39°49' E 025°41'13510.5
2014-Dec-03 15:27N 37°40' E 026°34'2010.4
2014-Dec-03 13:31N 37°24' E 026°50'2510.7
2014-Dec-03 11:11N 37°05' E 027°09'328 9.7
2014-Dec-02 01:21N 34°05' E 032°46'10 9.4
2014-Dec-02 00:15N 33°59' E 032°56'  
Track history (hours):
 
Tides and Currents Weather Stations Pressure Air Temp Water Temp Dewpoint Dewpoint Depression Visibility Wind Speed Wind Dir Waves Ship Positions

Ilgaz

Last reported at 2014-Dec-09 01:30 UTC. Time now 2014-Dec-20 02:17 UTC.
Position N 37°22' E 026°49'.
Warning: this ship's position is 11 days out of date.

Length 124 m; draft 8.5 m.

Type: Cargo ship. MMSI: 271000215.

Date/timePositionNaut miles runAvg speedWind from/ knotsBaromVisibWave heightAir tempDewpointWater temp
2014-Dec-09 01:30N 37°22' E 026°49'21 6.8
2014-Dec-08 22:22N 37°39' E 026°34'9 7.0
2014-Dec-08 21:04N 37°47' E 026°29'187 7.5
2014-Dec-07 20:19N 40°40' E 024°58'6 8.2
2014-Dec-07 19:33N 40°45' E 024°53'9 8.7
2014-Dec-07 18:33N 40°48' E 024°42'9 8.6
2014-Dec-07 17:33N 40°53' E 024°33'5 5.0
2014-Dec-07 16:33N 40°57' E 024°29'0 0.0
2014-Dec-07 15:33N 40°57' E 024°29'0 0.0
2014-Dec-07 14:33N 40°57' E 024°29'0 0.0
2014-Dec-07 13:33N 40°57' E 024°29'0 0.0
2014-Dec-07 12:33N 40°57' E 024°29'0 0.0
2014-Dec-07 11:33N 40°57' E 024°29'0 0.0
2014-Dec-07 10:33N 40°57' E 024°29'0 0.0
2014-Dec-07 09:33N 40°57' E 024°29'0 0.0
2014-Dec-07 08:33N 40°57' E 024°29'0 0.0
2014-Dec-07 07:33N 40°57' E 024°29'0 0.0
2014-Dec-07 06:33N 40°57' E 024°29'0 0.0
2014-Dec-07 05:33N 40°57' E 024°29'0 0.0
2014-Dec-07 02:33N 40°57' E 024°29'0 0.0
2014-Dec-07 01:33N 40°57' E 024°29'0 0.0
2014-Dec-07 00:33N 40°57' E 024°29'0 0.0
2014-Dec-06 23:27N 40°57' E 024°29'0 0.0
2014-Dec-06 22:33N 40°57' E 024°29'0 0.0
2014-Dec-06 21:33N 40°57' E 024°29'0 0.0
2014-Dec-06 20:33N 40°57' E 024°29'0 0.0
2014-Dec-06 19:33N 40°57' E 024°29'0 0.0
2014-Dec-06 18:33N 40°57' E 024°29'0 0.0
2014-Dec-06 17:33N 40°57' E 024°29'0 0.0
2014-Dec-06 16:33N 40°57' E 024°29'0 0.0
2014-Dec-06 15:33N 40°57' E 024°29'0 0.0
2014-Dec-06 14:33N 40°57' E 024°29'0 0.0
2014-Dec-06 13:09N 40°57' E 024°29'0 0.0
2014-Dec-06 12:27N 40°57' E 024°29'0 0.0
2014-Dec-06 11:21N 40°57' E 024°29'0 0.0
2014-Dec-06 10:27N 40°57' E 024°29'0 0.0
2014-Dec-06 08:33N 40°57' E 024°29'0 0.0
2014-Dec-06 07:33N 40°57' E 024°29'0 0.0
2014-Dec-06 06:33N 40°57' E 024°29'0 0.0
2014-Dec-06 05:27N 40°57' E 024°29'0 0.0
2014-Dec-06 04:33N 40°57' E 024°29'0 0.0
2014-Dec-06 03:33N 40°57' E 024°29'0 0.0
2014-Dec-06 02:27N 40°57' E 024°29'0 0.0
2014-Dec-06 01:33N 40°57' E 024°29'0 0.0
2014-Dec-06 00:33N 40°57' E 024°29'0 0.0
2014-Dec-05 23:33N 40°57' E 024°29'0 0.0
2014-Dec-05 22:33N 40°57' E 024°29'0 0.0
2014-Dec-05 21:27N 40°57' E 024°29'0 0.0
2014-Dec-05 20:33N 40°57' E 024°29'0 0.0
2014-Dec-05 19:33N 40°57' E 024°29'0 0.0
2014-Dec-05 18:33N 40°57' E 024°29'0 0.0
2014-Dec-05 17:33N 40°57' E 024°29'0 0.0
2014-Dec-05 16:33N 40°57' E 024°29'0 0.0
2014-Dec-05 15:33N 40°57' E 024°29'0 0.0
2014-Dec-05 14:33N 40°57' E 024°29'0 0.0
2014-Dec-05 13:33N 40°57' E 024°29'0 0.0
2014-Dec-05 12:33N 40°57' E 024°29'0 0.0
2014-Dec-05 11:27N 40°57' E 024°29'0 0.0
2014-Dec-05 10:33N 40°57' E 024°29'0 0.0
2014-Dec-05 09:33N 40°57' E 024°29'0 0.0
2014-Dec-05 08:18N 40°57' E 024°29'0 0.0
2014-Dec-05 07:27N 40°57' E 024°29'0 0.0
2014-Dec-05 06:33N 40°57' E 024°29'0 0.0
2014-Dec-05 05:33N 40°57' E 024°29'0 0.0
2014-Dec-05 04:33N 40°57' E 024°29'0 0.0
2014-Dec-05 03:33N 40°57' E 024°29'0 0.0
2014-Dec-05 02:33N 40°57' E 024°29'0 0.0
2014-Dec-05 01:33N 40°57' E 024°29'0 0.0
2014-Dec-05 00:33N 40°57' E 024°29'0 0.0
2014-Dec-04 23:30N 40°57' E 024°29'0 0.0
2014-Dec-04 22:33N 40°57' E 024°29'0 0.0
2014-Dec-04 21:33N 40°57' E 024°29'0 0.0
2014-Dec-04 20:30N 40°57' E 024°29'0 0.0
2014-Dec-04 19:33N 40°57' E 024°29'0 0.0
2014-Dec-04 18:33N 40°57' E 024°29'0 0.0
2014-Dec-04 17:33N 40°57' E 024°29'0 0.0
2014-Dec-04 16:33N 40°57' E 024°29'0 0.0
2014-Dec-04 15:33N 40°57' E 024°29'0 0.0
2014-Dec-04 14:33N 40°57' E 024°29'0 0.0
2014-Dec-04 13:28N 40°57' E 024°29'7 7.1
2014-Dec-04 12:34N 40°52' E 024°34'1110.6
2014-Dec-04 11:34N 40°47' E 024°47'10 9.9
2014-Dec-04 10:33N 40°40' E 024°56'10 9.5
2014-Dec-04 09:33N 40°33' E 025°05'1110.3
2014-Dec-04 08:30N 40°25' E 025°14'1110.4
2014-Dec-04 07:28N 40°17' E 025°23'910.4
2014-Dec-04 06:34N 40°09' E 025°31'1410.0
2014-Dec-04 05:07N 39°56' E 025°40'710.1
2014-Dec-04 04:25N 39°49' E 025°41'13510.5
2014-Dec-03 15:27N 37°40' E 026°34'2010.4
2014-Dec-03 13:31N 37°24' E 026°50'2510.7
2014-Dec-03 11:11N 37°05' E 027°09'328 9.7
2014-Dec-02 01:21N 34°05' E 032°46'10 9.4
2014-Dec-02 00:15N 33°59' E 032°56'  

Dump ship's entire track history